Nellis Air Force Base
KLSV : now visible

Airfield :











YOU CAN JOIN US ON...

 
LOGIN :

Register | Disclaimer

   EN    FR    IT 

 









Legend :    VFR   Marginal VFR   IFR   Intensive IFR   Very Intensive IFR
Visi :
Ceiling :
>= 8 km
>= 3000ft
5 to 8 km
1000 to 3000 ft
1500m to 5 km
500 to 1000 ft
800 to 1500m
200 to 500 ft
< 800m
< 200 ft
Symbols :   Thunderstorms  Fog  Heavy snow  Heavy precipitations  Wind > 20 kt






- Airport Elevation : 1870 ft


KLSV - Nellis Air Force Base

CURRENT METAR :
  • 041555Z AUTO 22005KT 10SM CLR 09/04 A3011 RMK AO2 SLP193 T00940040 $

EXPIRED METARs :
  • 041455Z AUTO 00000KT 10SM SCT033 BKN110 07/02 A3010 RMK AO2 SLP191 T00660017 53003 $
  • 041449Z AUTO 00000KT 10SM SCT033 BKN110 06/02 A3010 RMK AO2 SLP192 $
  • 041435Z AUTO 07003KT 10SM BKN034 BKN110 06/01 A3010 RMK AO2 SLP191 $
  • 041355Z AUTO 00000KT 10SM CLR 06/01 A3010 RMK AO2 SLP191 T00640007 $
  • 041255Z AUTO 04003KT 10SM FEW033 SCT100 07/01 A3009 RMK AO2 SLP186 T00710014 $

TAF TAF KLSV
Valid from the 04 at 15:00 until the 05 at 21:00 UTC


041500Z 0415/0521 08010KT 9999 SCT150 BKN220 QNH3001INS
BECMG 0421/0422 21012G20KT 9999 FEW130 SCT200 510009 QNH2996INS
BECMG 0507/0508 17012KT 9999 FEW110 SCT200 QNH2995INS
BECMG 0518/0519 19010G15KT 9999 BKN200 QNH2989INS TX19/0422Z TN06/0514Z
KZLA FIR / North America



MET'MAP, your aeronautical weather chart ! - Copyright ORBIFLY December 2007 - Disclaimer

ORBIFLY MET'MAP TEAM :

Programming & Development : Alexandra Zaïnal
Original concept : Baudouin d'Aumeries
Technical & hardware support : Manuel Goepfert
Assistance : Marc-Olivier Méhu




SOURCES & CREDITS :

   NOAA       Earth
Advisory